sensor_id;sensor_type;location;lat;lon;timestamp;P1;durP1;ratioP1;P2;durP2;ratioP2
76576;SDS011;65441;44.748;37.600;2023-11-21T00:00:17;5.13;;;2.17;;
76576;SDS011;65441;44.748;37.600;2023-11-21T00:02:45;4.53;;;1.52;;
76576;SDS011;65441;44.748;37.600;2023-11-21T00:05:14;4.65;;;1.40;;
76576;SDS011;65441;44.748;37.600;2023-11-21T00:07:42;5.22;;;2.00;;
76576;SDS011;65441;44.748;37.600;2023-11-21T00:10:11;3.83;;;1.23;;
76576;SDS011;65441;44.748;37.600;2023-11-21T00:12:42;4.95;;;1.80;;
76576;SDS011;65441;44.748;37.600;2023-11-21T00:15:21;3.65;;;1.55;;
76576;SDS011;65441;44.748;37.600;2023-11-21T00:17:49;3.70;;;1.30;;
76576;SDS011;65441;44.748;37.600;2023-11-21T00:20:18;2.90;;;1.08;;
76576;SDS011;65441;44.748;37.600;2023-11-21T00:22:48;6.55;;;2.60;;
76576;SDS011;65441;44.748;37.600;2023-11-21T00:25:16;3.97;;;1.15;;
76576;SDS011;65441;44.748;37.600;2023-11-21T00:27:46;5.38;;;1.80;;
76576;SDS011;65441;44.748;37.600;2023-11-21T00:30:14;4.95;;;2.13;;
76576;SDS011;65441;44.748;37.600;2023-11-21T00:32:44;8.32;;;2.10;;
76576;SDS011;65441;44.748;37.600;2023-11-21T00:35:14;4.53;;;1.55;;
76576;SDS011;65441;44.748;37.600;2023-11-21T00:37:42;5.10;;;2.10;;
76576;SDS011;65441;44.748;37.600;2023-11-21T00:40:11;4.25;;;1.40;;
76576;SDS011;65441;44.748;37.600;2023-11-21T00:42:42;7.82;;;2.40;;
76576;SDS011;65441;44.748;37.600;2023-11-21T00:45:10;5.40;;;1.95;;
76576;SDS011;65441;44.748;37.600;2023-11-21T00:47:39;5.85;;;2.35;;
76576;SDS011;65441;44.748;37.600;2023-11-21T00:50:09;10.68;;;3.45;;
76576;SDS011;65441;44.748;37.600;2023-11-21T00:52:37;7.72;;;1.73;;
76576;SDS011;65441;44.748;37.600;2023-11-21T00:55:06;5.78;;;2.10;;
76576;SDS011;65441;44.748;37.600;2023-11-21T00:57:35;7.80;;;2.75;;
76576;SDS011;65441;44.748;37.600;2023-11-21T01:00:03;6.72;;;2.50;;
76576;SDS011;65441;44.748;37.600;2023-11-21T01:02:35;6.03;;;2.00;;
76576;SDS011;65441;44.748;37.600;2023-11-21T01:05:04;8.93;;;2.58;;
76576;SDS011;65441;44.748;37.600;2023-11-21T01:07:35;7.00;;;2.97;;
76576;SDS011;65441;44.748;37.600;2023-11-21T01:10:04;5.22;;;1.65;;
76576;SDS011;65441;44.748;37.600;2023-11-21T01:12:34;5.40;;;1.80;;
76576;SDS011;65441;44.748;37.600;2023-11-21T01:15:03;6.80;;;2.58;;
76576;SDS011;65441;44.748;37.600;2023-11-21T01:17:33;6.68;;;2.20;;
76576;SDS011;65441;44.748;37.600;2023-11-21T01:20:01;7.70;;;2.50;;
76576;SDS011;65441;44.748;37.600;2023-11-21T01:22:32;11.25;;;2.42;;
76576;SDS011;65441;44.748;37.600;2023-11-21T01:25:01;5.55;;;1.77;;
76576;SDS011;65441;44.748;37.600;2023-11-21T01:27:33;5.30;;;2.05;;
76576;SDS011;65441;44.748;37.600;2023-11-21T01:30:01;6.95;;;2.75;;
76576;SDS011;65441;44.748;37.600;2023-11-21T01:32:31;11.18;;;2.28;;
76576;SDS011;65441;44.748;37.600;2023-11-21T01:34:59;4.35;;;1.85;;
76576;SDS011;65441;44.748;37.600;2023-11-21T01:37:27;4.45;;;1.88;;
76576;SDS011;65441;44.748;37.600;2023-11-21T01:39:57;4.80;;;2.03;;
76576;SDS011;65441;44.748;37.600;2023-11-21T01:42:26;4.68;;;1.67;;
76576;SDS011;65441;44.748;37.600;2023-11-21T01:44:58;4.13;;;2.03;;
76576;SDS011;65441;44.748;37.600;2023-11-21T01:47:26;4.78;;;1.98;;
76576;SDS011;65441;44.748;37.600;2023-11-21T01:49:54;6.35;;;1.90;;
76576;SDS011;65441;44.748;37.600;2023-11-21T01:52:22;4.63;;;1.75;;
76576;SDS011;65441;44.748;37.600;2023-11-21T01:54:51;7.13;;;2.42;;
76576;SDS011;65441;44.748;37.600;2023-11-21T01:57:20;7.38;;;2.40;;
76576;SDS011;65441;44.748;37.600;2023-11-21T01:59:50;6.15;;;2.00;;
76576;SDS011;65441;44.748;37.600;2023-11-21T02:02:21;7.68;;;2.33;;
76576;SDS011;65441;44.748;37.600;2023-11-21T02:04:50;7.80;;;2.20;;
76576;SDS011;65441;44.748;37.600;2023-11-21T02:07:18;6.32;;;2.35;;
76576;SDS011;65441;44.748;37.600;2023-11-21T02:09:49;6.57;;;2.88;;
76576;SDS011;65441;44.748;37.600;2023-11-21T02:12:17;6.65;;;2.35;;
76576;SDS011;65441;44.748;37.600;2023-11-21T02:14:45;6.93;;;2.38;;
76576;SDS011;65441;44.748;37.600;2023-11-21T02:17:15;6.40;;;2.17;;
76576;SDS011;65441;44.748;37.600;2023-11-21T02:19:44;7.68;;;2.78;;
76576;SDS011;65441;44.748;37.600;2023-11-21T02:22:13;8.63;;;2.85;;
76576;SDS011;65441;44.748;37.600;2023-11-21T02:24:45;7.22;;;2.67;;
76576;SDS011;65441;44.748;37.600;2023-11-21T02:27:13;7.18;;;2.25;;
76576;SDS011;65441;44.748;37.600;2023-11-21T02:29:47;6.97;;;2.45;;
76576;SDS011;65441;44.748;37.600;2023-11-21T02:32:16;4.03;;;1.50;;
76576;SDS011;65441;44.748;37.600;2023-11-21T02:34:45;8.40;;;2.30;;
76576;SDS011;65441;44.748;37.600;2023-11-21T02:37:13;7.20;;;2.58;;
76576;SDS011;65441;44.748;37.600;2023-11-21T02:39:41;6.78;;;1.92;;
76576;SDS011;65441;44.748;37.600;2023-11-21T02:42:12;5.03;;;1.92;;
76576;SDS011;65441;44.748;37.600;2023-11-21T02:44:40;7.22;;;3.13;;
76576;SDS011;65441;44.748;37.600;2023-11-21T02:47:08;6.30;;;2.40;;
76576;SDS011;65441;44.748;37.600;2023-11-21T02:49:36;6.72;;;2.55;;
76576;SDS011;65441;44.748;37.600;2023-11-21T02:52:05;8.00;;;2.75;;
76576;SDS011;65441;44.748;37.600;2023-11-21T02:54:33;6.38;;;2.38;;
76576;SDS011;65441;44.748;37.600;2023-11-21T02:57:04;6.72;;;2.13;;
76576;SDS011;65441;44.748;37.600;2023-11-21T02:59:33;10.55;;;3.00;;
76576;SDS011;65441;44.748;37.600;2023-11-21T03:02:02;4.07;;;1.90;;
76576;SDS011;65441;44.748;37.600;2023-11-21T03:04:30;5.88;;;2.08;;
76576;SDS011;65441;44.748;37.600;2023-11-21T03:06:59;6.22;;;2.58;;
76576;SDS011;65441;44.748;37.600;2023-11-21T03:09:27;5.35;;;2.15;;
76576;SDS011;65441;44.748;37.600;2023-11-21T03:11:55;5.47;;;2.22;;
76576;SDS011;65441;44.748;37.600;2023-11-21T03:14:25;6.97;;;2.50;;
76576;SDS011;65441;44.748;37.600;2023-11-21T03:16:54;7.72;;;2.65;;
76576;SDS011;65441;44.748;37.600;2023-11-21T03:19:22;5.32;;;2.05;;
76576;SDS011;65441;44.748;37.600;2023-11-21T03:21:51;9.35;;;2.67;;
76576;SDS011;65441;44.748;37.600;2023-11-21T03:24:19;4.53;;;1.77;;
76576;SDS011;65441;44.748;37.600;2023-11-21T03:26:48;5.10;;;2.13;;
76576;SDS011;65441;44.748;37.600;2023-11-21T03:29:18;5.97;;;2.30;;
76576;SDS011;65441;44.748;37.600;2023-11-21T03:31:47;4.97;;;2.28;;
76576;SDS011;65441;44.748;37.600;2023-11-21T03:34:23;4.43;;;1.85;;
76576;SDS011;65441;44.748;37.600;2023-11-21T03:36:54;7.68;;;2.80;;
76576;SDS011;65441;44.748;37.600;2023-11-21T03:39:23;8.73;;;3.08;;
76576;SDS011;65441;44.748;37.600;2023-11-21T03:41:52;7.50;;;2.90;;
76576;SDS011;65441;44.748;37.600;2023-11-21T03:44:22;6.72;;;2.58;;
76576;SDS011;65441;44.748;37.600;2023-11-21T03:46:54;4.85;;;2.22;;
76576;SDS011;65441;44.748;37.600;2023-11-21T03:49:22;6.57;;;2.53;;
76576;SDS011;65441;44.748;37.600;2023-11-21T03:51:50;9.15;;;2.45;;
76576;SDS011;65441;44.748;37.600;2023-11-21T03:54:19;6.82;;;2.33;;
76576;SDS011;65441;44.748;37.600;2023-11-21T03:56:47;4.60;;;1.90;;
76576;SDS011;65441;44.748;37.600;2023-11-21T03:59:15;8.43;;;2.85;;
76576;SDS011;65441;44.748;37.600;2023-11-21T04:01:43;7.53;;;2.58;;
76576;SDS011;65441;44.748;37.600;2023-11-21T04:04:13;4.70;;;2.00;;
76576;SDS011;65441;44.748;37.600;2023-11-21T04:06:41;8.88;;;2.40;;
76576;SDS011;65441;44.748;37.600;2023-11-21T04:09:09;6.10;;;2.35;;
76576;SDS011;65441;44.748;37.600;2023-11-21T04:11:37;6.47;;;2.35;;
76576;SDS011;65441;44.748;37.600;2023-11-21T04:14:05;5.15;;;1.70;;
76576;SDS011;65441;44.748;37.600;2023-11-21T04:16:33;5.75;;;2.00;;
76576;SDS011;65441;44.748;37.600;2023-11-21T04:19:01;6.30;;;2.13;;
76576;SDS011;65441;44.748;37.600;2023-11-21T04:21:31;5.88;;;1.92;;
76576;SDS011;65441;44.748;37.600;2023-11-21T04:24:00;6.93;;;2.78;;
76576;SDS011;65441;44.748;37.600;2023-11-21T04:26:28;6.38;;;1.77;;
76576;SDS011;65441;44.748;37.600;2023-11-21T04:28:56;5.38;;;2.20;;
76576;SDS011;65441;44.748;37.600;2023-11-21T04:31:25;7.13;;;1.90;;
76576;SDS011;65441;44.748;37.600;2023-11-21T04:33:53;5.90;;;2.13;;
76576;SDS011;65441;44.748;37.600;2023-11-21T04:36:21;4.72;;;2.05;;
76576;SDS011;65441;44.748;37.600;2023-11-21T04:38:51;5.60;;;2.10;;
76576;SDS011;65441;44.748;37.600;2023-11-21T04:41:19;8.27;;;2.30;;
76576;SDS011;65441;44.748;37.600;2023-11-21T04:43:47;7.30;;;2.75;;
76576;SDS011;65441;44.748;37.600;2023-11-21T04:46:15;5.53;;;2.03;;
76576;SDS011;65441;44.748;37.600;2023-11-21T04:48:43;6.18;;;2.03;;
76576;SDS011;65441;44.748;37.600;2023-11-21T04:51:12;5.97;;;1.50;;
76576;SDS011;65441;44.748;37.600;2023-11-21T04:53:40;8.40;;;2.60;;
76576;SDS011;65441;44.748;37.600;2023-11-21T04:56:10;6.60;;;2.40;;
76576;SDS011;65441;44.748;37.600;2023-11-21T04:58:38;8.82;;;2.88;;
76576;SDS011;65441;44.748;37.600;2023-11-21T05:01:07;6.53;;;1.67;;
76576;SDS011;65441;44.748;37.600;2023-11-21T05:03:36;6.10;;;2.17;;
76576;SDS011;65441;44.748;37.600;2023-11-21T05:06:05;8.55;;;2.40;;
76576;SDS011;65441;44.748;37.600;2023-11-21T05:08:34;5.75;;;1.92;;
76576;SDS011;65441;44.748;37.600;2023-11-21T05:11:03;8.25;;;2.33;;
76576;SDS011;65441;44.748;37.600;2023-11-21T05:13:35;5.28;;;2.10;;
76576;SDS011;65441;44.748;37.600;2023-11-21T05:16:03;8.60;;;2.85;;
76576;SDS011;65441;44.748;37.600;2023-11-21T05:18:33;6.28;;;2.85;;
76576;SDS011;65441;44.748;37.600;2023-11-21T05:21:01;9.00;;;2.78;;
76576;SDS011;65441;44.748;37.600;2023-11-21T05:23:31;7.82;;;2.67;;
76576;SDS011;65441;44.748;37.600;2023-11-21T05:26:00;6.68;;;2.20;;
76576;SDS011;65441;44.748;37.600;2023-11-21T05:28:28;7.47;;;2.28;;
76576;SDS011;65441;44.748;37.600;2023-11-21T05:30:58;6.55;;;2.55;;
76576;SDS011;65441;44.748;37.600;2023-11-21T05:33:27;8.90;;;2.75;;
76576;SDS011;65441;44.748;37.600;2023-11-21T05:35:56;7.88;;;2.67;;
76576;SDS011;65441;44.748;37.600;2023-11-21T05:38:24;6.93;;;2.33;;
76576;SDS011;65441;44.748;37.600;2023-11-21T05:40:52;6.90;;;2.90;;
76576;SDS011;65441;44.748;37.600;2023-11-21T05:43:21;5.70;;;2.70;;
76576;SDS011;65441;44.748;37.600;2023-11-21T05:45:49;13.07;;;2.70;;
76576;SDS011;65441;44.748;37.600;2023-11-21T05:48:19;6.50;;;2.65;;
76576;SDS011;65441;44.748;37.600;2023-11-21T05:50:47;7.13;;;2.47;;
76576;SDS011;65441;44.748;37.600;2023-11-21T05:53:15;7.65;;;2.83;;
76576;SDS011;65441;44.748;37.600;2023-11-21T05:55:44;7.00;;;2.30;;
76576;SDS011;65441;44.748;37.600;2023-11-21T05:58:12;5.75;;;2.25;;
76576;SDS011;65441;44.748;37.600;2023-11-21T06:00:40;7.30;;;3.10;;
76576;SDS011;65441;44.748;37.600;2023-11-21T06:03:09;7.57;;;2.92;;
76576;SDS011;65441;44.748;37.600;2023-11-21T06:05:38;6.15;;;2.42;;
76576;SDS011;65441;44.748;37.600;2023-11-21T06:08:10;7.13;;;2.88;;
76576;SDS011;65441;44.748;37.600;2023-11-21T06:10:38;7.93;;;2.95;;
76576;SDS011;65441;44.748;37.600;2023-11-21T06:13:06;14.27;;;2.53;;
76576;SDS011;65441;44.748;37.600;2023-11-21T06:15:34;5.57;;;2.45;;
76576;SDS011;65441;44.748;37.600;2023-11-21T06:18:02;8.38;;;2.22;;
76576;SDS011;65441;44.748;37.600;2023-11-21T06:20:35;8.35;;;3.42;;
76576;SDS011;65441;44.748;37.600;2023-11-21T06:23:06;5.18;;;2.05;;
76576;SDS011;65441;44.748;37.600;2023-11-21T06:25:35;7.93;;;2.85;;
76576;SDS011;65441;44.748;37.600;2023-11-21T06:28:03;8.18;;;2.42;;
76576;SDS011;65441;44.748;37.600;2023-11-21T06:30:31;8.40;;;2.58;;
76576;SDS011;65441;44.748;37.600;2023-11-21T06:32:59;8.00;;;2.53;;
76576;SDS011;65441;44.748;37.600;2023-11-21T06:35:28;8.77;;;3.33;;
76576;SDS011;65441;44.748;37.600;2023-11-21T06:37:59;5.93;;;2.22;;
76576;SDS011;65441;44.748;37.600;2023-11-21T06:40:30;6.85;;;2.05;;
76576;SDS011;65441;44.748;37.600;2023-11-21T06:42:59;7.68;;;2.47;;
76576;SDS011;65441;44.748;37.600;2023-11-21T06:45:27;7.68;;;2.95;;
76576;SDS011;65441;44.748;37.600;2023-11-21T06:47:56;8.02;;;2.40;;
76576;SDS011;65441;44.748;37.600;2023-11-21T06:50:24;7.55;;;2.95;;
76576;SDS011;65441;44.748;37.600;2023-11-21T06:52:52;8.10;;;2.60;;
76576;SDS011;65441;44.748;37.600;2023-11-21T06:55:20;6.38;;;2.60;;
76576;SDS011;65441;44.748;37.600;2023-11-21T06:57:50;6.35;;;2.25;;
76576;SDS011;65441;44.748;37.600;2023-11-21T07:00:19;7.43;;;2.35;;
76576;SDS011;65441;44.748;37.600;2023-11-21T07:02:47;7.15;;;2.47;;
76576;SDS011;65441;44.748;37.600;2023-11-21T07:05:15;9.38;;;2.83;;
76576;SDS011;65441;44.748;37.600;2023-11-21T07:07:46;7.38;;;2.55;;
76576;SDS011;65441;44.748;37.600;2023-11-21T07:10:15;6.80;;;2.15;;
76576;SDS011;65441;44.748;37.600;2023-11-21T07:12:44;7.57;;;2.50;;
76576;SDS011;65441;44.748;37.600;2023-11-21T07:15:13;6.38;;;2.80;;
76576;SDS011;65441;44.748;37.600;2023-11-21T07:17:42;5.28;;;2.55;;
76576;SDS011;65441;44.748;37.600;2023-11-21T07:20:10;6.20;;;2.58;;
76576;SDS011;65441;44.748;37.600;2023-11-21T07:22:39;6.07;;;2.22;;
76576;SDS011;65441;44.748;37.600;2023-11-21T07:25:08;6.13;;;1.92;;
76576;SDS011;65441;44.748;37.600;2023-11-21T07:27:36;6.97;;;2.35;;
76576;SDS011;65441;44.748;37.600;2023-11-21T07:30:05;6.93;;;2.42;;
76576;SDS011;65441;44.748;37.600;2023-11-21T07:32:37;6.78;;;2.33;;
76576;SDS011;65441;44.748;37.600;2023-11-21T07:35:06;10.52;;;3.28;;
76576;SDS011;65441;44.748;37.600;2023-11-21T07:37:34;10.23;;;2.85;;
76576;SDS011;65441;44.748;37.600;2023-11-21T07:40:03;4.20;;;1.92;;
76576;SDS011;65441;44.748;37.600;2023-11-21T07:42:34;4.95;;;1.88;;
76576;SDS011;65441;44.748;37.600;2023-11-21T07:45:05;5.35;;;1.80;;
76576;SDS011;65441;44.748;37.600;2023-11-21T07:47:34;4.78;;;2.08;;
76576;SDS011;65441;44.748;37.600;2023-11-21T07:50:05;5.28;;;1.85;;
76576;SDS011;65441;44.748;37.600;2023-11-21T07:52:35;6.90;;;2.47;;
76576;SDS011;65441;44.748;37.600;2023-11-21T07:55:03;7.10;;;2.67;;
76576;SDS011;65441;44.748;37.600;2023-11-21T07:57:33;6.65;;;2.10;;
76576;SDS011;65441;44.748;37.600;2023-11-21T08:00:02;4.95;;;1.80;;
76576;SDS011;65441;44.748;37.600;2023-11-21T08:02:38;5.95;;;2.17;;
76576;SDS011;65441;44.748;37.600;2023-11-21T08:05:10;8.55;;;2.53;;
76576;SDS011;65441;44.748;37.600;2023-11-21T08:07:40;4.88;;;1.92;;
76576;SDS011;65441;44.748;37.600;2023-11-21T08:10:09;5.57;;;2.20;;
76576;SDS011;65441;44.748;37.600;2023-11-21T08:12:38;5.03;;;1.70;;
76576;SDS011;65441;44.748;37.600;2023-11-21T08:15:09;7.05;;;2.17;;
76576;SDS011;65441;44.748;37.600;2023-11-21T08:17:37;5.65;;;2.38;;
76576;SDS011;65441;44.748;37.600;2023-11-21T08:20:06;5.47;;;1.77;;
76576;SDS011;65441;44.748;37.600;2023-11-21T08:22:38;7.22;;;2.08;;
76576;SDS011;65441;44.748;37.600;2023-11-21T08:25:08;5.85;;;1.65;;
76576;SDS011;65441;44.748;37.600;2023-11-21T08:27:36;5.45;;;2.00;;
76576;SDS011;65441;44.748;37.600;2023-11-21T08:30:05;5.47;;;1.90;;
76576;SDS011;65441;44.748;37.600;2023-11-21T08:32:34;6.15;;;1.52;;
76576;SDS011;65441;44.748;37.600;2023-11-21T08:35:03;4.78;;;1.73;;
76576;SDS011;65441;44.748;37.600;2023-11-21T08:37:32;8.57;;;2.22;;
76576;SDS011;65441;44.748;37.600;2023-11-21T08:40:08;10.55;;;1.77;;
76576;SDS011;65441;44.748;37.600;2023-11-21T08:42:40;7.32;;;2.15;;
76576;SDS011;65441;44.748;37.600;2023-11-21T08:45:09;7.82;;;2.42;;
76576;SDS011;65441;44.748;37.600;2023-11-21T08:47:37;5.57;;;2.00;;
76576;SDS011;65441;44.748;37.600;2023-11-21T08:50:07;6.85;;;2.00;;
76576;SDS011;65441;44.748;37.600;2023-11-21T08:52:36;7.60;;;1.95;;
76576;SDS011;65441;44.748;37.600;2023-11-21T08:55:04;7.90;;;2.53;;
76576;SDS011;65441;44.748;37.600;2023-11-21T08:57:36;9.00;;;2.33;;
76576;SDS011;65441;44.748;37.600;2023-11-21T09:00:08;7.40;;;2.35;;
76576;SDS011;65441;44.748;37.600;2023-11-21T09:02:38;8.48;;;2.47;;
76576;SDS011;65441;44.748;37.600;2023-11-21T09:05:08;5.78;;;1.90;;
76576;SDS011;65441;44.748;37.600;2023-11-21T09:07:37;9.50;;;2.70;;
76576;SDS011;65441;44.748;37.600;2023-11-21T09:10:07;7.30;;;1.90;;
76576;SDS011;65441;44.748;37.600;2023-11-21T09:12:38;7.72;;;2.78;;
76576;SDS011;65441;44.748;37.600;2023-11-21T09:15:07;10.13;;;3.72;;
76576;SDS011;65441;44.748;37.600;2023-11-21T09:17:38;8.73;;;3.35;;
76576;SDS011;65441;44.748;37.600;2023-11-21T09:20:07;10.10;;;3.55;;
76576;SDS011;65441;44.748;37.600;2023-11-21T09:22:41;6.22;;;2.60;;
76576;SDS011;65441;44.748;37.600;2023-11-21T09:25:11;8.57;;;3.10;;
76576;SDS011;65441;44.748;37.600;2023-11-21T09:27:40;6.47;;;2.63;;
76576;SDS011;65441;44.748;37.600;2023-11-21T09:30:09;7.80;;;3.15;;
76576;SDS011;65441;44.748;37.600;2023-11-21T09:32:40;8.52;;;3.08;;
76576;SDS011;65441;44.748;37.600;2023-11-21T09:35:11;9.63;;;3.63;;
76576;SDS011;65441;44.748;37.600;2023-11-21T09:37:40;9.32;;;3.47;;
76576;SDS011;65441;44.748;37.600;2023-11-21T09:40:10;10.63;;;3.75;;
76576;SDS011;65441;44.748;37.600;2023-11-21T09:42:48;7.97;;;3.45;;
76576;SDS011;65441;44.748;37.600;2023-11-21T09:45:22;10.55;;;3.53;;
76576;SDS011;65441;44.748;37.600;2023-11-21T09:47:53;10.52;;;3.22;;
76576;SDS011;65441;44.748;37.600;2023-11-21T09:50:22;13.15;;;4.68;;
76576;SDS011;65441;44.748;37.600;2023-11-21T09:52:55;9.52;;;3.83;;
76576;SDS011;65441;44.748;37.600;2023-11-21T09:55:27;11.00;;;4.63;;
76576;SDS011;65441;44.748;37.600;2023-11-21T09:57:59;11.02;;;3.85;;
76576;SDS011;65441;44.748;37.600;2023-11-21T10:00:28;8.82;;;3.70;;
76576;SDS011;65441;44.748;37.600;2023-11-21T10:02:59;10.27;;;4.15;;
76576;SDS011;65441;44.748;37.600;2023-11-21T10:05:29;10.65;;;5.00;;
76576;SDS011;65441;44.748;37.600;2023-11-21T10:08:00;11.75;;;4.40;;
76576;SDS011;65441;44.748;37.600;2023-11-21T10:10:29;13.73;;;5.15;;
76576;SDS011;65441;44.748;37.600;2023-11-21T10:13:02;11.13;;;4.70;;
76576;SDS011;65441;44.748;37.600;2023-11-21T10:15:34;12.85;;;4.53;;
76576;SDS011;65441;44.748;37.600;2023-11-21T10:18:02;10.35;;;4.05;;
76576;SDS011;65441;44.748;37.600;2023-11-21T10:20:32;11.88;;;3.83;;
76576;SDS011;65441;44.748;37.600;2023-11-21T10:23:04;9.48;;;4.13;;
76576;SDS011;65441;44.748;37.600;2023-11-21T10:25:33;11.93;;;4.13;;
76576;SDS011;65441;44.748;37.600;2023-11-21T10:28:04;7.38;;;3.00;;
76576;SDS011;65441;44.748;37.600;2023-11-21T10:30:33;8.98;;;3.60;;
76576;SDS011;65441;44.748;37.600;2023-11-21T10:33:03;7.50;;;3.80;;
76576;SDS011;65441;44.748;37.600;2023-11-21T10:35:39;8.57;;;3.42;;
76576;SDS011;65441;44.748;37.600;2023-11-21T10:38:13;10.23;;;3.63;;
76576;SDS011;65441;44.748;37.600;2023-11-21T10:40:41;9.23;;;3.65;;
76576;SDS011;65441;44.748;37.600;2023-11-21T10:43:12;10.63;;;3.83;;
76576;SDS011;65441;44.748;37.600;2023-11-21T10:45:41;8.70;;;3.15;;
76576;SDS011;65441;44.748;37.600;2023-11-21T10:48:10;6.80;;;2.58;;
76576;SDS011;65441;44.748;37.600;2023-11-21T10:50:41;8.15;;;2.80;;
76576;SDS011;65441;44.748;37.600;2023-11-21T10:53:11;6.63;;;2.33;;
76576;SDS011;65441;44.748;37.600;2023-11-21T10:55:39;6.63;;;2.05;;
76576;SDS011;65441;44.748;37.600;2023-11-21T10:58:09;5.93;;;2.25;;
76576;SDS011;65441;44.748;37.600;2023-11-21T11:00:41;8.27;;;2.45;;
76576;SDS011;65441;44.748;37.600;2023-11-21T11:03:11;5.75;;;2.00;;
76576;SDS011;65441;44.748;37.600;2023-11-21T11:05:40;6.05;;;2.00;;
76576;SDS011;65441;44.748;37.600;2023-11-21T11:08:17;7.28;;;2.80;;
76576;SDS011;65441;44.748;37.600;2023-11-21T11:10:52;8.10;;;2.05;;
76576;SDS011;65441;44.748;37.600;2023-11-21T11:13:22;5.63;;;2.22;;
76576;SDS011;65441;44.748;37.600;2023-11-21T11:15:51;5.10;;;1.80;;
76576;SDS011;65441;44.748;37.600;2023-11-21T11:18:27;4.38;;;1.50;;
76576;SDS011;65441;44.748;37.600;2023-11-21T11:20:58;5.22;;;1.90;;
76576;SDS011;65441;44.748;37.600;2023-11-21T11:23:44;7.72;;;1.90;;
76576;SDS011;65441;44.748;37.600;2023-11-21T11:26:26;4.82;;;1.63;;
76576;SDS011;65441;44.748;37.600;2023-11-21T11:29:07;5.00;;;1.80;;
76576;SDS011;65441;44.748;37.600;2023-11-21T11:31:46;4.70;;;1.73;;
76576;SDS011;65441;44.748;37.600;2023-11-21T11:34:26;3.50;;;1.13;;
76576;SDS011;65441;44.748;37.600;2023-11-21T11:36:59;5.18;;;1.55;;
76576;SDS011;65441;44.748;37.600;2023-11-21T11:39:30;5.25;;;1.75;;
76576;SDS011;65441;44.748;37.600;2023-11-21T11:42:02;6.65;;;1.42;;
76576;SDS011;65441;44.748;37.600;2023-11-21T11:44:50;6.28;;;1.80;;
76576;SDS011;65441;44.748;37.600;2023-11-21T11:47:21;3.53;;;1.35;;
76576;SDS011;65441;44.748;37.600;2023-11-21T11:49:59;6.10;;;1.38;;
76576;SDS011;65441;44.748;37.600;2023-11-21T11:52:33;5.22;;;1.77;;
76576;SDS011;65441;44.748;37.600;2023-11-21T11:55:04;4.22;;;1.48;;
76576;SDS011;65441;44.748;37.600;2023-11-21T11:57:36;3.05;;;1.02;;
76576;SDS011;65441;44.748;37.600;2023-11-21T12:00:17;3.53;;;1.23;;
76576;SDS011;65441;44.748;37.600;2023-11-21T12:02:47;10.88;;;1.67;;
76576;SDS011;65441;44.748;37.600;2023-11-21T12:05:17;4.40;;;1.48;;
76576;SDS011;65441;44.748;37.600;2023-11-21T12:07:50;5.47;;;1.30;;
76576;SDS011;65441;44.748;37.600;2023-11-21T12:10:20;2.80;;;1.13;;
76576;SDS011;65441;44.748;37.600;2023-11-21T12:12:51;4.80;;;1.13;;
76576;SDS011;65441;44.748;37.600;2023-11-21T12:15:23;3.78;;;1.50;;
76576;SDS011;65441;44.748;37.600;2023-11-21T12:17:52;4.65;;;1.10;;
76576;SDS011;65441;44.748;37.600;2023-11-21T12:20:21;4.85;;;1.50;;
76576;SDS011;65441;44.748;37.600;2023-11-21T12:22:51;4.50;;;1.27;;
76576;SDS011;65441;44.748;37.600;2023-11-21T12:25:20;6.18;;;1.67;;
76576;SDS011;65441;44.748;37.600;2023-11-21T12:27:51;5.57;;;1.80;;
76576;SDS011;65441;44.748;37.600;2023-11-21T12:30:21;5.45;;;1.70;;
76576;SDS011;65441;44.748;37.600;2023-11-21T12:32:55;7.82;;;1.80;;
76576;SDS011;65441;44.748;37.600;2023-11-21T12:35:24;5.55;;;2.00;;
76576;SDS011;65441;44.748;37.600;2023-11-21T12:37:54;3.42;;;1.25;;
76576;SDS011;65441;44.748;37.600;2023-11-21T12:40:24;4.95;;;1.50;;
76576;SDS011;65441;44.748;37.600;2023-11-21T12:42:53;5.78;;;1.80;;
76576;SDS011;65441;44.748;37.600;2023-11-21T12:45:25;5.68;;;1.50;;
76576;SDS011;65441;44.748;37.600;2023-11-21T12:47:55;3.83;;;1.48;;
76576;SDS011;65441;44.748;37.600;2023-11-21T12:50:26;7.15;;;1.67;;
76576;SDS011;65441;44.748;37.600;2023-11-21T12:52:58;4.45;;;1.48;;
76576;SDS011;65441;44.748;37.600;2023-11-21T12:55:29;3.42;;;1.63;;
76576;SDS011;65441;44.748;37.600;2023-11-21T12:58:00;3.92;;;1.30;;
76576;SDS011;65441;44.748;37.600;2023-11-21T13:00:38;4.25;;;1.70;;
76576;SDS011;65441;44.748;37.600;2023-11-21T13:03:09;7.93;;;1.70;;
76576;SDS011;65441;44.748;37.600;2023-11-21T13:05:43;4.53;;;1.45;;
76576;SDS011;65441;44.748;37.600;2023-11-21T13:08:17;5.22;;;1.88;;
76576;SDS011;65441;44.748;37.600;2023-11-21T13:10:48;4.35;;;1.70;;
76576;SDS011;65441;44.748;37.600;2023-11-21T13:13:20;5.95;;;1.63;;
76576;SDS011;65441;44.748;37.600;2023-11-21T13:15:52;4.82;;;1.60;;
76576;SDS011;65441;44.748;37.600;2023-11-21T13:18:22;3.50;;;1.13;;
76576;SDS011;65441;44.748;37.600;2023-11-21T13:20:52;4.50;;;1.60;;
76576;SDS011;65441;44.748;37.600;2023-11-21T13:23:22;4.78;;;1.45;;
76576;SDS011;65441;44.748;37.600;2023-11-21T13:25:51;6.38;;;1.52;;
76576;SDS011;65441;44.748;37.600;2023-11-21T13:28:20;6.22;;;1.85;;
76576;SDS011;65441;44.748;37.600;2023-11-21T13:30:52;4.32;;;1.35;;
76576;SDS011;65441;44.748;37.600;2023-11-21T13:33:20;5.03;;;1.70;;
76576;SDS011;65441;44.748;37.600;2023-11-21T13:35:53;4.10;;;1.50;;
76576;SDS011;65441;44.748;37.600;2023-11-21T13:38:23;4.43;;;1.50;;
76576;SDS011;65441;44.748;37.600;2023-11-21T13:40:56;3.53;;;1.48;;
76576;SDS011;65441;44.748;37.600;2023-11-21T13:43:25;5.65;;;1.15;;
76576;SDS011;65441;44.748;37.600;2023-11-21T13:45:56;8.73;;;1.77;;
76576;SDS011;65441;44.748;37.600;2023-11-21T13:48:29;3.75;;;1.50;;
76576;SDS011;65441;44.748;37.600;2023-11-21T13:51:06;3.15;;;1.30;;
76576;SDS011;65441;44.748;37.600;2023-11-21T13:53:42;5.15;;;1.35;;
76576;SDS011;65441;44.748;37.600;2023-11-21T13:56:10;7.43;;;1.60;;
76576;SDS011;65441;44.748;37.600;2023-11-21T13:58:42;3.00;;;1.27;;
76576;SDS011;65441;44.748;37.600;2023-11-21T14:01:17;6.15;;;2.08;;
76576;SDS011;65441;44.748;37.600;2023-11-21T14:04:19;5.38;;;1.67;;
76576;SDS011;65441;44.748;37.600;2023-11-21T14:07:01;4.25;;;1.10;;
76576;SDS011;65441;44.748;37.600;2023-11-21T14:09:46;3.65;;;1.40;;
76576;SDS011;65441;44.748;37.600;2023-11-21T14:12:15;4.00;;;1.35;;
76576;SDS011;65441;44.748;37.600;2023-11-21T14:14:43;3.75;;;1.20;;
76576;SDS011;65441;44.748;37.600;2023-11-21T14:17:15;4.78;;;1.58;;
76576;SDS011;65441;44.748;37.600;2023-11-21T14:19:43;5.40;;;1.70;;
76576;SDS011;65441;44.748;37.600;2023-11-21T14:22:11;5.30;;;1.42;;
76576;SDS011;65441;44.748;37.600;2023-11-21T14:24:39;4.53;;;1.70;;
76576;SDS011;65441;44.748;37.600;2023-11-21T14:27:12;2.95;;;1.15;;
76576;SDS011;65441;44.748;37.600;2023-11-21T14:29:41;4.70;;;1.50;;
76576;SDS011;65441;44.748;37.600;2023-11-21T14:32:10;4.72;;;1.30;;
76576;SDS011;65441;44.748;37.600;2023-11-21T14:34:41;3.45;;;1.30;;
76576;SDS011;65441;44.748;37.600;2023-11-21T14:37:13;4.70;;;1.63;;
76576;SDS011;65441;44.748;37.600;2023-11-21T14:39:41;6.60;;;1.80;;
76576;SDS011;65441;44.748;37.600;2023-11-21T14:42:12;3.63;;;1.10;;
76576;SDS011;65441;44.748;37.600;2023-11-21T14:44:41;4.38;;;1.58;;
76576;SDS011;65441;44.748;37.600;2023-11-21T14:47:11;4.70;;;1.77;;
76576;SDS011;65441;44.748;37.600;2023-11-21T14:49:44;4.72;;;1.40;;